Velindra — MCVG8 — position and weather

sailwx.info

Track history (hours):
 
Tides and Currents Weather Stations Pressure Air Temp Water Temp Dewpoint Dewpoint Depression Visibility Wind Speed Wind Dir Waves Ship Positions

Velindra

Last reported at 2017-Oct-14 05:19 UTC. Time now 2017-Oct-20 01:40 UTC.
Position S 27°12' E 153°07'.

Length 11 m.

Type: Sailing vessel. MMSI: 235023885.

Date/timePositionNaut miles runAvg speedWind from/ knotsBaromVisibWave heightAir tempDewpointWater temp
2017-Oct-14 05:19S 27°12' E 153°07'0 0.1
2017-Oct-14 04:58S 27°12' E 153°07'1 1.7
2017-Oct-14 04:30S 27°11' E 153°06'2 4.8
2017-Oct-14 04:00S 27°11' E 153°09'3 5.7
2017-Oct-14 03:30S 27°12' E 153°12'  
2017-Oct-07 20:24S 27°48' E 153°26'0 0.0
2017-Oct-07 05:00S 27°48' E 153°26'1 1.1
2017-Oct-07 04:30S 27°49' E 153°25'2 3.6
2017-Oct-07 04:00S 27°50' E 153°24'2 3.7
2017-Oct-07 03:30S 27°52' E 153°25'  
2017-Oct-04 23:10S 27°58' E 153°25'2 4.5
2017-Oct-04 22:48S 27°56' E 153°25'1 4.0
2017-Oct-04 22:28S 27°55' E 153°25'3 3.1
2017-Oct-04 21:36S 27°52' E 153°25'0 3.0
2017-Oct-04 21:30S 27°52' E 153°25'  
Track history (hours):
 
Tides and Currents Weather Stations Pressure Air Temp Water Temp Dewpoint Dewpoint Depression Visibility Wind Speed Wind Dir Waves Ship Positions

Velindra

Last reported at 2017-Oct-14 05:19 UTC. Time now 2017-Oct-20 01:40 UTC.
Position S 27°12' E 153°07'.

Length 11 m.

Type: Sailing vessel. MMSI: 235023885.

Date/timePositionNaut miles runAvg speedWind from/ knotsBaromVisibWave heightAir tempDewpointWater temp
2017-Oct-14 05:19S 27°12' E 153°07'0 0.1
2017-Oct-14 04:58S 27°12' E 153°07'1 1.7
2017-Oct-14 04:30S 27°11' E 153°06'2 4.8
2017-Oct-14 04:00S 27°11' E 153°09'3 5.7
2017-Oct-14 03:30S 27°12' E 153°12'  
2017-Oct-07 20:24S 27°48' E 153°26'0 0.0
2017-Oct-07 05:00S 27°48' E 153°26'1 1.1
2017-Oct-07 04:30S 27°49' E 153°25'2 3.6
2017-Oct-07 04:00S 27°50' E 153°24'2 3.7
2017-Oct-07 03:30S 27°52' E 153°25'  
2017-Oct-04 23:10S 27°58' E 153°25'2 4.5
2017-Oct-04 22:48S 27°56' E 153°25'1 4.0
2017-Oct-04 22:28S 27°55' E 153°25'3 3.1
2017-Oct-04 21:36S 27°52' E 153°25'0 3.0
2017-Oct-04 21:30S 27°52' E 153°25'  

Dump ship's entire track history